Time;durP1;ratioP1;P1;durP2;ratioP2;P2;SDS_P1;SDS_P2;PMS_P1;PMS_P2;Temp;Humidity;BMP_temperature;BMP_pressure;BME280_temperature;BME280_humidity;BME280_pressure;Samples;Min_cycle;Max_cycle;Signal;HPM_P1;HPM_P2
2021/04/23 00:00:28;;;;;;;2.77;2.57;;;19.10;30.80;;;;;;5032879;28;20481;-74
2021/04/23 00:02:57;;;;;;;3.10;2.90;;;19.00;30.70;;;;;;5034216;28;20411;-74
2021/04/23 00:05:23;;;;;;;2.40;2.30;;;19.00;31.40;;;;;;5033626;28;20466;-74
2021/04/23 00:07:48;;;;;;;2.47;2.37;;;19.00;30.70;;;;;;5034081;28;20442;-74
2021/04/23 00:10:17;;;;;;;2.80;2.70;;;19.00;30.70;;;;;;5033995;28;20547;-74
2021/04/23 00:12:42;;;;;;;2.50;2.40;;;19.00;30.70;;;;;;5033999;28;20172;-74
2021/04/23 00:15:17;;;;;;;2.87;2.77;;;19.00;30.70;;;;;;5033520;28;20528;-74
2021/04/23 00:17:42;;;;;;;4.40;2.90;;;19.00;30.70;;;;;;5033852;28;20199;-74
2021/04/23 00:20:28;;;;;;;3.10;2.87;;;19.00;30.70;;;;;;5033772;28;20423;-74
2021/04/23 00:22:58;;;;;;;2.80;2.70;;;19.00;30.70;;;;;;5033664;28;20177;-74
2021/04/23 00:25:26;;;;;;;2.60;2.50;;;19.00;30.70;;;;;;5033511;28;20488;-74
2021/04/23 00:27:53;;;;;;;2.93;2.83;;;19.00;30.70;;;;;;5033668;28;20435;-74
2021/04/23 00:30:22;;;;;;;2.77;2.67;;;18.90;30.60;;;;;;5032380;28;20565;-74
2021/04/23 00:32:47;;;;;;;2.73;2.63;;;19.00;30.70;;;;;;5033636;28;20461;-74
2021/04/23 00:35:17;;;;;;;2.20;2.10;;;19.00;30.70;;;;;;5033184;28;20505;-74
2021/04/23 00:37:47;;;;;;;2.77;2.67;;;19.00;30.80;;;;;;5033378;28;20558;-74
2021/04/23 00:40:15;;;;;;;2.70;2.60;;;18.90;30.60;;;;;;5033727;28;20435;-73
2021/04/23 00:42:40;;;;;;;3.00;2.90;;;18.90;30.60;;;;;;5032232;28;20510;-74
2021/04/23 00:45:07;;;;;;;2.77;2.67;;;18.90;30.70;;;;;;5033038;28;20613;-74
2021/04/23 00:47:32;;;;;;;2.80;2.70;;;18.90;30.70;;;;;;5032240;28;20213;-73
2021/04/23 00:49:58;;;;;;;3.03;2.83;;;18.90;30.70;;;;;;5033340;28;20505;-74
2021/04/23 00:52:24;;;;;;;2.90;2.80;;;18.90;30.70;;;;;;5033253;28;20508;-74
2021/04/23 00:54:49;;;;;;;2.73;2.63;;;18.90;30.70;;;;;;5033176;28;20702;-73
2021/04/23 00:57:15;;;;;;;2.53;2.43;;;18.90;30.70;;;;;;5032932;28;20200;-74
2021/04/23 00:59:40;;;;;;;2.67;2.57;;;18.90;30.70;;;;;;5032075;28;20537;-74
2021/04/23 01:02:10;;;;;;;2.60;2.50;;;18.90;30.70;;;;;;5033012;28;20169;-74
2021/04/23 01:04:36;;;;;;;2.70;2.60;;;18.90;30.70;;;;;;5033157;28;20165;-74
2021/04/23 01:07:03;;;;;;;2.50;2.40;;;18.90;30.70;;;;;;5032655;28;20463;-74
2021/04/23 01:09:30;;;;;;;2.30;2.20;;;18.90;30.70;;;;;;5033061;28;20507;-73
2021/04/23 01:11:58;;;;;;;2.63;2.53;;;18.80;30.50;;;;;;5033146;28;20486;-73
2021/04/23 01:14:25;;;;;;;2.73;2.63;;;18.90;30.70;;;;;;5033078;28;20428;-74
2021/04/23 01:16:51;;;;;;;2.60;2.50;;;18.90;30.70;;;;;;5031453;28;20514;-74
2021/04/23 01:19:20;;;;;;;2.67;2.57;;;18.90;30.70;;;;;;5032863;28;20415;-74
2021/04/23 01:21:47;;;;;;;2.40;2.30;;;18.90;30.70;;;;;;5032661;28;20419;-74
2021/04/23 01:24:13;;;;;;;2.50;2.40;;;18.80;30.60;;;;;;5032669;28;20920;-74
2021/04/23 01:26:45;;;;;;;2.53;2.43;;;18.80;30.60;;;;;;5030931;28;20498;-74
2021/04/23 01:29:13;;;;;;;2.80;2.70;;;18.90;30.70;;;;;;5032470;28;20447;-74
2021/04/23 01:31:42;;;;;;;2.63;2.53;;;18.90;30.60;;;;;;5032407;28;20418;-74
2021/04/23 01:34:22;;;;;;;2.60;2.50;;;18.90;30.70;;;;;;5032336;28;20408;-74
2021/04/23 01:36:48;;;;;;;2.40;2.30;;;18.80;30.50;;;;;;5032149;28;20435;-74
2021/04/23 01:39:18;;;;;;;2.90;2.80;;;18.80;30.50;;;;;;5032370;28;20439;-74
2021/04/23 01:41:44;;;;;;;2.53;2.43;;;18.80;30.60;;;;;;5032287;28;20415;-74
2021/04/23 01:44:11;;;;;;;2.77;2.67;;;18.80;30.60;;;;;;5032446;28;20416;-74
2021/04/23 01:46:36;;;;;;;2.97;2.87;;;18.80;30.60;;;;;;5031970;28;20988;-73
2021/04/23 01:49:10;;;;;;;2.63;2.53;;;18.80;30.60;;;;;;5031655;28;20461;-74
2021/04/23 01:51:41;;;;;;;3.00;2.80;;;18.80;30.60;;;;;;5032246;28;20211;-74
2021/04/23 01:54:10;;;;;;;2.43;2.33;;;18.80;30.60;;;;;;5032183;28;20453;-74
2021/04/23 01:56:36;;;;;;;2.60;2.50;;;18.80;30.60;;;;;;5031798;28;20506;-74
2021/04/23 01:59:03;;;;;;;2.93;2.83;;;18.80;30.60;;;;;;5032019;28;21021;-74
2021/04/23 02:01:29;;;;;;;2.50;2.40;;;18.80;30.60;;;;;;5031890;28;20503;-74
2021/04/23 02:03:54;;;;;;;2.60;2.50;;;18.80;30.60;;;;;;5032083;28;20494;-74
2021/04/23 02:06:20;;;;;;;3.03;2.90;;;18.80;30.60;;;;;;5031630;28;20342;-74
2021/04/23 02:08:45;;;;;;;2.50;2.40;;;18.70;30.50;;;;;;5032053;28;20165;-74
2021/04/23 02:11:14;;;;;;;2.63;2.53;;;18.80;30.70;;;;;;5031822;28;20179;-74
2021/04/23 02:13:41;;;;;;;2.40;2.30;;;18.80;30.70;;;;;;5031967;28;20187;-74
2021/04/23 02:16:08;;;;;;;2.83;2.73;;;18.70;30.60;;;;;;5031568;28;20930;-74
2021/04/23 02:18:35;;;;;;;2.57;2.47;;;18.70;30.60;;;;;;5031981;28;20427;-74
2021/04/23 02:21:00;;;;;;;2.77;2.60;;;18.70;30.60;;;;;;5031729;28;20413;-74
2021/04/23 02:23:27;;;;;;;2.60;2.50;;;18.70;30.60;;;;;;5031820;28;20411;-74
2021/04/23 02:25:53;;;;;;;2.80;2.60;;;18.70;30.60;;;;;;5031449;28;20197;-74
2021/04/23 02:28:20;;;;;;;3.03;2.83;;;18.70;30.60;;;;;;5031625;28;20473;-74
2021/04/23 02:30:51;;;;;;;2.67;2.57;;;18.70;30.60;;;;;;5031698;28;20407;-74
2021/04/23 02:33:21;;;;;;;2.70;2.60;;;18.70;30.60;;;;;;5031810;28;20425;-74
2021/04/23 02:35:49;;;;;;;2.47;2.37;;;18.70;30.60;;;;;;5031244;28;20423;-74
2021/04/23 02:38:16;;;;;;;2.70;2.60;;;18.70;30.60;;;;;;5031495;28;20431;-74
2021/04/23 02:40:41;;;;;;;2.53;2.37;;;18.70;30.60;;;;;;5031589;28;20419;-74
2021/04/23 02:43:14;;;;;;;2.60;2.50;;;18.70;31.30;;;;;;5030366;28;20412;-74
2021/04/23 02:45:41;;;;;;;2.93;2.83;;;18.70;30.60;;;;;;5031591;28;20754;-74
2021/04/23 02:48:08;;;;;;;2.43;2.33;;;18.70;30.60;;;;;;5031571;28;20506;-74
2021/04/23 02:50:34;;;;;;;2.70;2.60;;;18.70;30.60;;;;;;5030387;28;21011;-74
2021/04/23 02:53:01;;;;;;;2.60;2.50;;;18.70;30.70;;;;;;5031539;28;20443;-74
2021/04/23 02:55:27;;;;;;;2.53;2.47;;;18.70;30.70;;;;;;5031314;28;20185;-74
2021/04/23 02:57:56;;;;;;;2.40;2.30;;;18.70;30.60;;;;;;5031460;28;20458;-74
2021/04/23 03:00:24;;;;;;;2.70;2.60;;;18.70;30.60;;;;;;5033298;28;20647;-74
2021/04/23 03:02:50;;;;;;;2.93;2.73;;;18.70;30.60;;;;;;5035410;28;20466;-74
2021/04/23 03:05:18;;;;;;;2.67;2.57;;;18.70;30.60;;;;;;5034905;28;20968;-74
2021/04/23 03:07:44;;;;;;;2.60;2.50;;;18.70;30.60;;;;;;5035125;28;20192;-74
2021/04/23 03:10:11;;;;;;;2.97;2.87;;;18.70;31.30;;;;;;5035095;28;20415;-74
2021/04/23 03:12:36;;;;;;;2.60;2.50;;;18.70;30.60;;;;;;5034183;28;20184;-74
2021/04/23 03:15:06;;;;;;;2.77;2.67;;;18.70;30.60;;;;;;5033481;28;20439;-73
2021/04/23 03:17:32;;;;;;;3.20;3.00;;;18.70;30.60;;;;;;5034963;28;20259;-74
2021/04/23 03:19:57;;;;;;;2.70;2.60;;;18.60;30.50;;;;;;5033722;28;20438;-74
2021/04/23 03:22:23;;;;;;;2.50;2.40;;;18.60;30.50;;;;;;5034843;28;20198;-74
2021/04/23 03:24:48;;;;;;;2.70;2.60;;;18.70;30.60;;;;;;5034918;28;20234;-74
2021/04/23 03:27:14;;;;;;;3.30;3.10;;;18.60;30.50;;;;;;5034522;28;20197;-74
2021/04/23 03:29:40;;;;;;;2.67;2.57;;;18.60;30.50;;;;;;5034765;28;20643;-74
2021/04/23 03:32:06;;;;;;;2.70;2.60;;;18.60;30.50;;;;;;5034727;28;20226;-74
2021/04/23 03:34:31;;;;;;;2.60;2.50;;;18.60;30.50;;;;;;5034663;28;20910;-74
2021/04/23 03:36:57;;;;;;;2.70;2.60;;;18.60;30.50;;;;;;5034753;28;20295;-74
2021/04/23 03:39:22;;;;;;;2.80;2.70;;;18.60;30.60;;;;;;5034703;28;20204;-74
2021/04/23 03:41:48;;;;;;;2.87;2.77;;;18.60;30.80;;;;;;5034504;28;20712;-74
2021/04/23 03:44:13;;;;;;;2.80;2.70;;;18.70;30.70;;;;;;5034533;28;20183;-74
2021/04/23 03:46:39;;;;;;;2.80;2.70;;;18.80;30.40;;;;;;5034217;28;20222;-74
2021/04/23 03:49:05;;;;;;;2.77;2.67;;;18.90;30.20;;;;;;5034443;28;20536;-73
2021/04/23 03:51:30;;;;;;;2.67;2.57;;;19.00;30.00;;;;;;5034324;28;20169;-74
2021/04/23 03:53:56;;;;;;;2.80;2.70;;;19.10;30.00;;;;;;5034372;28;20169;-74
2021/04/23 03:56:23;;;;;;;2.70;2.60;;;19.30;29.80;;;;;;5034024;28;20172;-74
2021/04/23 03:58:50;;;;;;;2.93;2.73;;;19.30;29.50;;;;;;5034282;28;20188;-74
2021/04/23 04:01:22;;;;;;;2.70;2.60;;;19.40;29.60;;;;;;5034138;28;20770;-74
2021/04/23 04:03:49;;;;;;;2.60;2.50;;;19.50;29.60;;;;;;5034221;28;20395;-74
2021/04/23 04:06:14;;;;;;;2.80;2.70;;;19.60;29.70;;;;;;5033701;28;20812;-74
2021/04/23 04:08:40;;;;;;;2.90;2.80;;;19.60;29.70;;;;;;5034116;28;20561;-74
2021/04/23 04:11:06;;;;;;;2.60;2.50;;;19.60;29.70;;;;;;5033520;28;20200;-74
2021/04/23 04:13:33;;;;;;;2.60;2.50;;;19.70;29.80;;;;;;5034032;28;20497;-74
2021/04/23 04:15:59;;;;;;;2.70;2.60;;;19.70;29.70;;;;;;5033610;28;20200;-74
2021/04/23 04:18:24;;;;;;;2.60;2.50;;;19.70;29.70;;;;;;5033820;28;20428;-74
2021/04/23 04:20:52;;;;;;;2.57;2.47;;;19.70;29.80;;;;;;5033838;28;20420;-74
2021/04/23 04:23:19;;;;;;;2.73;2.63;;;19.70;29.80;;;;;;5033843;28;20187;-74
2021/04/23 04:25:52;;;;;;;2.90;2.80;;;19.70;29.80;;;;;;5032255;28;20517;-75
2021/04/23 04:28:18;;;;;;;3.63;3.00;;;19.70;29.70;;;;;;5033765;28;20483;-75
2021/04/23 04:30:44;;;;;;;2.60;2.50;;;19.60;29.70;;;;;;5033813;28;20404;-74
2021/04/23 04:33:11;;;;;;;3.17;3.07;;;19.60;29.70;;;;;;5033580;28;20407;-73
2021/04/23 04:35:38;;;;;;;2.97;2.77;;;19.60;29.70;;;;;;5033351;28;20415;-74
2021/04/23 04:38:09;;;;;;;4.20;3.20;;;19.70;29.80;;;;;;5033460;28;20845;-72
2021/04/23 04:40:37;;;;;;;3.43;3.10;;;19.70;29.80;;;;;;5033562;28;20419;-73
2021/04/23 04:43:05;;;;;;;3.30;3.20;;;19.80;29.80;;;;;;5033520;28;20415;-73
2021/04/23 04:45:31;;;;;;;4.07;3.77;;;19.80;29.80;;;;;;5033124;28;20538;-73
2021/04/23 04:47:57;;;;;;;3.73;3.43;;;19.80;30.40;;;;;;5033160;28;20523;-76
2021/04/23 04:50:29;;;;;;;4.10;3.60;;;19.80;29.80;;;;;;5032297;28;20227;-72
2021/04/23 04:52:56;;;;;;;4.13;3.27;;;19.80;29.80;;;;;;5033269;28;20487;-73
2021/04/23 04:55:27;;;;;;;4.00;3.70;;;19.80;29.80;;;;;;5033102;28;20914;-73
2021/04/23 04:57:54;;;;;;;3.80;3.50;;;19.80;29.80;;;;;;5033218;28;20434;-74
2021/04/23 05:00:20;;;;;;;4.53;3.67;;;19.80;29.80;;;;;;5032829;28;20407;-73
2021/04/23 05:02:46;;;;;;;3.80;3.50;;;19.80;29.90;;;;;;5033057;28;20408;-73
2021/04/23 05:05:12;;;;;;;3.57;3.27;;;19.80;29.90;;;;;;5032809;28;20407;-73
2021/04/23 05:07:38;;;;;;;6.53;3.47;;;19.70;29.80;;;;;;5033044;28;20530;-73
2021/04/23 05:10:04;;;;;;;5.90;4.03;;;19.70;29.80;;;;;;5033080;28;20487;-74
2021/04/23 05:12:30;;;;;;;3.67;3.37;;;19.70;29.80;;;;;;5033129;28;20645;-73
2021/04/23 05:14:55;;;;;;;3.30;3.10;;;19.70;29.80;;;;;;5033407;28;20468;-72
2021/04/23 05:17:21;;;;;;;3.57;3.37;;;19.70;29.80;;;;;;5033809;28;20217;-71
2021/04/23 05:19:47;;;;;;;3.83;2.90;;;19.60;29.80;;;;;;5032971;28;20569;-72
2021/04/23 05:22:12;;;;;;;3.50;3.20;;;19.60;30.00;;;;;;5032064;28;20173;-75
2021/04/23 05:24:38;;;;;;;4.30;4.00;;;19.60;30.10;;;;;;5033056;28;20203;-74
2021/04/23 05:27:04;;;;;;;3.00;2.80;;;19.60;30.10;;;;;;5032554;28;20219;-75
2021/04/23 05:29:29;;;;;;;4.33;3.70;;;19.50;30.10;;;;;;5032663;28;20665;-75
2021/04/23 05:31:55;;;;;;;3.87;3.50;;;19.50;30.30;;;;;;5032558;28;20985;-75
2021/04/23 05:34:20;;;;;;;4.27;3.87;;;19.40;30.30;;;;;;5032579;28;20177;-75
2021/04/23 05:36:46;;;;;;;4.07;3.57;;;19.50;30.40;;;;;;5032399;28;20193;-76
2021/04/23 05:39:13;;;;;;;4.43;4.07;;;19.40;30.30;;;;;;5032721;28;20199;-76
2021/04/23 05:41:40;;;;;;;3.67;3.47;;;19.40;30.40;;;;;;5032784;28;20176;-75
2021/04/23 05:44:08;;;;;;;3.20;3.00;;;19.30;30.30;;;;;;5032489;28;20465;-75
2021/04/23 05:46:34;;;;;;;5.53;3.70;;;19.30;30.40;;;;;;5032008;28;20969;-75
2021/04/23 05:49:00;;;;;;;3.70;3.43;;;19.30;30.50;;;;;;5032263;28;20407;-72
2021/04/23 05:51:25;;;;;;;6.43;3.70;;;19.30;30.50;;;;;;5031704;28;20480;-73
2021/04/23 05:53:51;;;;;;;4.37;3.80;;;19.30;30.70;;;;;;5031943;28;20176;-73
2021/04/23 05:56:16;;;;;;;6.90;4.50;;;19.40;30.80;;;;;;5030604;28;20331;-72
2021/04/23 05:58:42;;;;;;;6.60;4.77;;;19.50;30.80;;;;;;5032092;28;20251;-73
2021/04/23 06:01:08;;;;;;;5.97;4.87;;;19.50;30.80;;;;;;5030425;28;20203;-73
2021/04/23 06:03:33;;;;;;;11.73;5.73;;;19.50;30.80;;;;;;5031320;28;20169;-74
2021/04/23 06:05:59;;;;;;;5.77;4.60;;;19.60;30.50;;;;;;5031603;28;20200;-72
2021/04/23 06:08:24;;;;;;;11.43;5.23;;;19.60;30.80;;;;;;5031951;28;20200;-74
2021/04/23 06:10:50;;;;;;;9.10;4.70;;;19.60;31.20;;;;;;5030001;28;20200;-73
2021/04/23 06:13:16;;;;;;;4.77;4.30;;;19.70;31.20;;;;;;5031038;28;20218;-74
2021/04/23 06:15:42;;;;;;;7.40;4.43;;;19.60;31.10;;;;;;5030680;28;20431;-74
2021/04/23 06:18:10;;;;;;;7.10;4.87;;;19.70;31.00;;;;;;5031147;28;20274;-74
2021/04/23 06:20:36;;;;;;;6.17;4.67;;;19.60;30.80;;;;;;5031683;28;20434;-73
2021/04/23 06:23:04;;;;;;;9.63;5.73;;;19.60;30.60;;;;;;5031234;28;20510;-74
2021/04/23 06:25:29;;;;;;;6.70;5.77;;;19.50;29.90;;;;;;5031412;28;20196;-74
2021/04/23 06:27:56;;;;;;;6.60;5.93;;;19.50;28.00;;;;;;5031759;28;20486;-73
2021/04/23 06:30:25;;;;;;;6.77;5.73;;;19.30;27.10;;;;;;5031665;28;20268;-73
2021/04/23 06:32:51;;;;;;;7.83;6.07;;;19.30;28.20;;;;;;5031692;28;20462;-75
2021/04/23 06:35:19;;;;;;;8.60;5.87;;;19.40;28.10;;;;;;5034942;28;21111;-74
2021/04/23 06:37:45;;;;;;;9.33;6.17;;;19.50;28.00;;;;;;5035747;28;20279;-74
2021/04/23 06:40:11;;;;;;;6.13;5.40;;;19.60;27.80;;;;;;5034512;28;20518;-73
2021/04/23 06:42:37;;;;;;;6.63;6.03;;;19.60;27.40;;;;;;5035531;28;20212;-73
2021/04/23 06:45:05;;;;;;;6.03;5.50;;;19.70;27.60;;;;;;5035326;28;20937;-72
2021/04/23 06:47:34;;;;;;;6.43;5.17;;;19.70;27.40;;;;;;5035386;28;20470;-71
2021/04/23 06:50:00;;;;;;;12.50;6.53;;;19.70;27.70;;;;;;5035751;28;20461;-73
2021/04/23 06:52:26;;;;;;;11.37;5.10;;;19.70;27.90;;;;;;5035402;28;20913;-72
2021/04/23 06:54:51;;;;;;;10.30;5.50;;;19.70;28.00;;;;;;5035451;28;20176;-72
2021/04/23 06:57:17;;;;;;;6.17;5.57;;;19.70;28.00;;;;;;5035104;28;20210;-72
2021/04/23 06:59:43;;;;;;;9.83;6.00;;;19.80;28.20;;;;;;5035385;28;20180;-71
2021/04/23 07:02:08;;;;;;;11.43;5.70;;;19.70;28.30;;;;;;5035201;28;20263;-72
2021/04/23 07:04:34;;;;;;;14.83;5.63;;;19.80;28.50;;;;;;5033755;28;20207;-72
2021/04/23 07:06:59;;;;;;;9.80;5.63;;;19.80;28.50;;;;;;5034370;28;20714;-71
2021/04/23 07:09:25;;;;;;;9.13;6.37;;;19.70;28.50;;;;;;5035234;28;20212;-71
2021/04/23 07:11:50;;;;;;;7.50;5.63;;;19.70;28.50;;;;;;5034999;28;20183;-72
2021/04/23 07:14:16;;;;;;;8.87;5.67;;;19.70;28.50;;;;;;5035151;28;20180;-72
2021/04/23 07:16:41;;;;;;;11.50;5.97;;;19.80;28.50;;;;;;5034971;28;20200;-71
2021/04/23 07:19:07;;;;;;;10.10;5.70;;;19.80;28.40;;;;;;5035066;28;20180;-71
2021/04/23 07:21:33;;;;;;;8.90;5.80;;;19.80;28.40;;;;;;5034857;28;20680;-72
2021/04/23 07:23:59;;;;;;;7.30;5.67;;;19.80;28.40;;;;;;5035001;28;20592;-71
2021/04/23 07:26:24;;;;;;;9.13;5.60;;;19.80;28.50;;;;;;5034434;28;20204;-72
2021/04/23 07:28:50;;;;;;;10.50;5.70;;;19.80;28.60;;;;;;5034849;28;20227;-70
2021/04/23 07:31:15;;;;;;;7.40;5.40;;;19.90;28.80;;;;;;5034667;28;20408;-72
2021/04/23 07:33:41;;;;;;;6.17;5.50;;;19.90;28.80;;;;;;5034812;28;20177;-71
2021/04/23 07:36:06;;;;;;;5.57;5.07;;;19.90;28.90;;;;;;5034442;28;20183;-71
2021/04/23 07:38:32;;;;;;;9.50;5.33;;;19.70;28.80;;;;;;5034573;28;20227;-71
2021/04/23 07:40:58;;;;;;;8.20;5.07;;;19.70;29.00;;;;;;5034535;28;20172;-71
2021/04/23 07:43:26;;;;;;;8.97;4.87;;;19.60;29.20;;;;;;5034491;28;20605;-71
2021/04/23 07:45:52;;;;;;;5.90;5.30;;;19.60;29.30;;;;;;5033331;28;20493;-71
2021/04/23 07:48:18;;;;;;;10.10;5.10;;;19.50;29.40;;;;;;5034497;28;20428;-71
2021/04/23 07:50:43;;;;;;;5.70;5.10;;;19.50;29.60;;;;;;5034363;28;20473;-71
2021/04/23 07:53:09;;;;;;;6.77;4.90;;;19.50;29.60;;;;;;5034338;28;20168;-71
2021/04/23 07:55:34;;;;;;;6.00;5.40;;;19.50;29.60;;;;;;5034067;28;20196;-71
2021/04/23 07:58:00;;;;;;;6.30;4.53;;;19.40;29.60;;;;;;5034229;28;20192;-71
2021/04/23 08:00:26;;;;;;;6.13;5.00;;;19.40;29.60;;;;;;5034309;28;20173;-71
2021/04/23 08:02:53;;;;;;;8.43;5.40;;;19.40;29.60;;;;;;5034197;28;20203;-71
2021/04/23 08:05:20;;;;;;;9.60;5.17;;;19.30;29.50;;;;;;5032829;28;20408;-71
2021/04/23 08:07:46;;;;;;;6.50;5.47;;;19.40;29.60;;;;;;5033934;28;20918;-71
2021/04/23 08:10:16;;;;;;;5.20;4.80;;;19.30;29.50;;;;;;5033989;28;20414;-70
2021/04/23 08:12:45;;;;;;;6.57;4.80;;;19.30;29.50;;;;;;5034002;28;20807;-71
2021/04/23 08:15:11;;;;;;;5.10;4.60;;;19.30;29.50;;;;;;5033842;28;20436;-71
2021/04/23 08:17:37;;;;;;;5.03;4.40;;;19.30;29.50;;;;;;5033775;28;20496;-71
2021/04/23 08:20:05;;;;;;;7.27;5.07;;;19.30;29.50;;;;;;5033902;28;20408;-71
2021/04/23 08:22:31;;;;;;;5.60;5.00;;;19.30;29.50;;;;;;5033772;28;20469;-71
2021/04/23 08:24:56;;;;;;;8.47;5.70;;;19.30;29.50;;;;;;5033854;28;20412;-70
2021/04/23 08:27:22;;;;;;;5.30;4.80;;;19.30;29.50;;;;;;5033642;28;20212;-71
2021/04/23 08:29:48;;;;;;;6.13;5.20;;;19.20;29.40;;;;;;5033954;28;20172;-71
2021/04/23 08:32:13;;;;;;;5.57;5.07;;;19.30;29.50;;;;;;5033666;28;20172;-72
2021/04/23 08:34:39;;;;;;;5.27;4.70;;;19.20;29.40;;;;;;5033567;28;20172;-71
2021/04/23 08:37:04;;;;;;;5.77;5.20;;;19.20;29.40;;;;;;5033264;28;20280;-70
2021/04/23 08:39:30;;;;;;;5.43;4.90;;;19.20;29.50;;;;;;5033692;28;20208;-71
2021/04/23 08:41:55;;;;;;;6.50;4.73;;;19.20;29.40;;;;;;5033778;28;20176;-71
2021/04/23 08:44:21;;;;;;;5.73;5.23;;;19.20;29.60;;;;;;5033599;28;20200;-71
2021/04/23 08:46:47;;;;;;;5.00;4.60;;;19.20;29.50;;;;;;5013593;28;20217;-72
2021/04/23 08:49:17;;;;;;;8.10;5.10;;;19.20;29.60;;;;;;5013782;28;20226;-71
2021/04/23 08:51:45;;;;;;;5.47;4.33;;;19.20;29.70;;;;;;5013596;28;20459;-71
2021/04/23 08:54:10;;;;;;;5.53;5.03;;;19.10;29.70;;;;;;5027595;28;20415;-71
2021/04/23 08:56:36;;;;;;;6.77;4.80;;;19.20;29.80;;;;;;5032750;28;20489;-72
2021/04/23 08:59:02;;;;;;;5.57;4.93;;;19.10;29.70;;;;;;5033263;28;20192;-71
2021/04/23 09:01:28;;;;;;;5.00;4.50;;;19.20;29.80;;;;;;5033069;28;20177;-71
2021/04/23 09:03:54;;;;;;;5.17;4.67;;;19.20;29.80;;;;;;5033184;28;20201;-72
2021/04/23 09:06:24;;;;;;;5.40;5.00;;;19.20;29.90;;;;;;5032740;28;20537;-72
2021/04/23 09:08:52;;;;;;;5.27;4.77;;;19.10;29.80;;;;;;5033035;28;20176;-72
2021/04/23 09:11:20;;;;;;;5.10;4.73;;;19.10;29.90;;;;;;5033049;28;20526;-71
2021/04/23 09:14:03;;;;;;;4.87;4.67;;;19.20;30.00;;;;;;5032953;28;20438;-71
2021/04/23 09:16:44;;;;;;;5.10;4.70;;;19.20;30.00;;;;;;5032564;28;20891;-70
2021/04/23 09:19:22;;;;;;;4.87;4.50;;;19.20;30.00;;;;;;5032884;28;20411;-71
2021/04/23 09:22:02;;;;;;;4.80;4.40;;;19.10;30.00;;;;;;5033106;28;20404;-71
2021/04/23 09:24:33;;;;;;;7.00;5.30;;;19.10;30.00;;;;;;5033240;28;20408;-71
2021/04/23 09:27:07;;;;;;;5.27;4.87;;;19.10;30.00;;;;;;5032845;28;20549;-72
2021/04/23 09:29:34;;;;;;;5.53;5.03;;;19.10;30.00;;;;;;5032973;28;20509;-71
2021/04/23 09:32:30;;;;;;;5.73;4.80;;;19.10;30.00;;;;;;5032967;28;20415;-72
2021/04/23 09:34:58;;;;;;;6.70;4.77;;;19.10;30.00;;;;;;5032652;28;20406;-71
2021/04/23 09:37:27;;;;;;;4.67;4.27;;;19.10;30.00;;;;;;5032232;28;20478;-72
2021/04/23 09:40:04;;;;;;;5.03;4.30;;;19.10;30.00;;;;;;5031187;28;20419;-71
2021/04/23 09:42:49;;;;;;;5.23;4.83;;;19.10;30.00;;;;;;5032500;28;20411;-70
2021/04/23 09:45:26;;;;;;;6.43;5.63;;;19.20;30.20;;;;;;5032195;28;20415;-70
2021/04/23 09:47:53;;;;;;;7.20;6.20;;;19.20;28.20;;;;;;5032183;28;20469;-72
2021/04/23 09:50:21;;;;;;;8.37;7.50;;;19.20;28.50;;;;;;5031181;28;20484;-73
2021/04/23 09:52:55;;;;;;;7.10;6.40;;;19.00;24.30;;;;;;5032308;28;20411;-71
2021/04/23 09:55:27;;;;;;;7.47;6.77;;;19.00;25.00;;;;;;5032245;28;20811;-71
2021/04/23 09:57:57;;;;;;;7.63;6.93;;;18.90;22.60;;;;;;5032056;28;20433;-71
2021/04/23 10:00:28;;;;;;;7.43;6.70;;;18.80;22.50;;;;;;5032001;28;20403;-71
2021/04/23 10:02:56;;;;;;;7.70;6.00;;;18.70;23.40;;;;;;5030798;28;20818;-70
2021/04/23 10:05:42;;;;;;;6.33;5.70;;;18.70;22.80;;;;;;5031948;28;20415;-71
2021/04/23 10:08:25;;;;;;;6.43;5.80;;;18.90;22.70;;;;;;5031586;28;20435;-70
2021/04/23 10:10:54;;;;;;;6.90;5.90;;;19.00;21.00;;;;;;5031831;28;20462;-69
2021/04/23 10:13:33;;;;;;;6.80;6.10;;;19.20;21.20;;;;;;5031950;28;20411;-71
2021/04/23 10:16:00;;;;;;;9.90;5.27;;;19.30;21.70;;;;;;5031623;28;20457;-71
2021/04/23 10:18:26;;;;;;;5.63;5.10;;;19.30;22.60;;;;;;5031808;28;20435;-71
2021/04/23 10:20:53;;;;;;;8.13;6.03;;;19.40;23.30;;;;;;5031700;28;20447;-70
2021/04/23 10:23:21;;;;;;;5.53;5.13;;;19.40;23.20;;;;;;5031599;28;20407;-71
2021/04/23 10:25:48;;;;;;;6.23;5.60;;;19.50;24.00;;;;;;5031356;28;20508;-71
2021/04/23 10:28:18;;;;;;;6.13;5.53;;;19.50;24.10;;;;;;5031618;28;20428;-70
2021/04/23 10:30:46;;;;;;;6.27;5.70;;;19.60;24.40;;;;;;5031706;28;20799;-70
2021/04/23 10:33:14;;;;;;;4.77;4.47;;;19.60;24.60;;;;;;5031736;28;21037;-71
2021/04/23 10:35:42;;;;;;;5.93;5.47;;;19.60;24.70;;;;;;5030130;28;20428;-70
2021/04/23 10:38:16;;;;;;;6.20;5.70;;;19.60;25.00;;;;;;5031481;28;20527;-70
2021/04/23 10:40:44;;;;;;;5.37;5.00;;;19.60;25.10;;;;;;5032213;28;20936;-72
2021/04/23 10:43:17;;;;;;;6.10;5.60;;;19.70;25.30;;;;;;5031593;28;20442;-71
2021/04/23 10:46:12;;;;;;;5.70;5.30;;;19.70;25.40;;;;;;5031381;28;20549;-74
2021/04/23 10:48:42;;;;;;;6.00;5.30;;;19.70;25.60;;;;;;5031531;28;20944;-71
2021/04/23 10:51:27;;;;;;;5.63;5.10;;;19.80;26.20;;;;;;5031184;28;20407;-71
2021/04/23 10:54:04;;;;;;;4.90;4.50;;;19.70;25.90;;;;;;5030919;28;20411;-71
2021/04/23 10:56:38;;;;;;;5.27;4.87;;;19.80;26.20;;;;;;5029689;28;20924;-70
2021/04/23 10:59:07;;;;;;;5.80;5.30;;;19.80;26.10;;;;;;5030809;28;20406;-71
2021/04/23 11:01:36;;;;;;;6.10;5.60;;;19.80;26.20;;;;;;5031380;28;20411;-70
2021/04/23 11:04:07;;;;;;;5.60;5.20;;;19.80;26.20;;;;;;5031338;28;20443;-70
2021/04/23 11:06:40;;;;;;;5.50;5.00;;;19.80;26.30;;;;;;5031056;28;20908;-71
2021/04/23 11:09:11;;;;;;;4.90;4.50;;;19.80;26.30;;;;;;5031195;28;20408;-70
2021/04/23 11:11:42;;;;;;;7.60;5.60;;;19.80;26.40;;;;;;5031322;28;20898;-70
2021/04/23 11:14:21;;;;;;;5.43;5.00;;;19.90;26.50;;;;;;5031109;28;20434;-71
2021/04/23 11:16:48;;;;;;;5.03;4.63;;;19.90;26.50;;;;;;5030901;28;20937;-70
2021/04/23 11:19:19;;;;;;;6.43;5.53;;;19.90;26.60;;;;;;5031175;28;20416;-70
2021/04/23 11:21:46;;;;;;;5.07;4.70;;;19.90;26.60;;;;;;5033392;28;20419;-72
2021/04/23 11:24:16;;;;;;;7.50;5.17;;;19.90;26.70;;;;;;5034914;28;20510;-70
2021/04/23 11:29:27;;;;;;;4.90;4.50;;;19.90;26.80;;;;;;5034822;28;20411;-71
2021/04/23 11:32:13;;;;;;;11.00;5.67;;;19.90;27.00;;;;;;5034551;28;20411;-72
2021/04/23 11:34:46;;;;;;;4.80;4.47;;;19.90;27.00;;;;;;5034840;28;20771;-71
2021/04/23 11:37:12;;;;;;;5.40;4.93;;;19.90;27.00;;;;;;5034424;28;20427;-71
2021/04/23 11:39:44;;;;;;;6.10;5.37;;;19.90;27.00;;;;;;5033830;28;20872;-71
2021/04/23 11:42:10;;;;;;;5.43;5.00;;;19.90;27.10;;;;;;5034026;28;20443;-71
2021/04/23 11:44:48;;;;;;;5.70;4.53;;;19.90;27.50;;;;;;5034349;28;20439;-71
2021/04/23 11:47:15;;;;;;;5.53;4.97;;;19.90;27.30;;;;;;5034108;28;20216;-72
2021/04/23 11:49:41;;;;;;;5.77;4.93;;;20.00;27.40;;;;;;5034494;28;20917;-71
2021/04/23 11:52:07;;;;;;;5.43;5.03;;;20.00;27.30;;;;;;5031455;28;21151;-71
2021/04/23 11:54:37;;;;;;;5.00;4.70;;;20.00;27.40;;;;;;5021785;28;20739;-72
2021/04/23 11:57:05;;;;;;;4.97;4.53;;;20.00;27.50;;;;;;5021464;28;20436;-71
2021/04/23 11:59:32;;;;;;;5.50;5.00;;;20.00;27.60;;;;;;5022005;28;20412;-72
2021/04/23 12:01:58;;;;;;;5.57;5.23;;;20.00;27.70;;;;;;5023971;28;20506;-71
2021/04/23 12:04:44;;;;;;;6.93;4.40;;;20.00;27.80;;;;;;5019526;28;20818;-71
2021/04/23 12:07:10;;;;;;;7.17;5.17;;;20.00;27.50;;;;;;5024779;28;20212;-72
2021/04/23 12:09:36;;;;;;;5.00;4.70;;;20.00;27.80;;;;;;5023723;28;20408;-71
2021/04/23 12:12:08;;;;;;;4.90;4.60;;;20.00;27.60;;;;;;5022825;28;20415;-71
2021/04/23 12:14:44;;;;;;;5.30;5.00;;;20.00;27.60;;;;;;5022057;28;20278;-71
2021/04/23 12:17:10;;;;;;;5.70;5.20;;;20.00;27.70;;;;;;5021363;28;20438;-72
2021/04/23 12:19:36;;;;;;;4.70;4.40;;;20.00;27.60;;;;;;5024374;28;20411;-71
2021/04/23 12:22:02;;;;;;;4.83;4.53;;;20.00;27.60;;;;;;5022404;28;20181;-71
2021/04/23 12:24:27;;;;;;;4.83;4.53;;;20.00;27.60;;;;;;5021703;28;20420;-70
2021/04/23 12:26:53;;;;;;;5.10;4.80;;;20.00;27.70;;;;;;5020081;28;20271;-71
2021/04/23 12:29:23;;;;;;;7.73;4.70;;;20.00;27.80;;;;;;5023399;28;20168;-71
2021/04/23 12:31:49;;;;;;;4.43;4.13;;;20.00;27.80;;;;;;5022661;28;20236;-71
2021/04/23 12:34:15;;;;;;;4.33;4.13;;;20.00;27.80;;;;;;5021559;28;20883;-71
2021/04/23 12:36:47;;;;;;;4.73;4.53;;;20.00;27.80;;;;;;5022596;28;20435;-72
2021/04/23 12:39:24;;;;;;;4.70;4.40;;;20.00;28.00;;;;;;5033359;28;20418;-74
2021/04/23 12:41:52;;;;;;;4.50;4.20;;;20.00;28.10;;;;;;5033552;28;20407;-71
2021/04/23 12:44:30;;;;;;;6.03;4.60;;;20.00;27.90;;;;;;5033271;28;20411;-71
2021/04/23 12:47:04;;;;;;;5.20;4.87;;;20.00;28.60;;;;;;5032627;28;20466;-72
2021/04/23 12:49:41;;;;;;;7.00;4.77;;;20.00;27.90;;;;;;5033427;28;20942;-72
2021/04/23 12:52:13;;;;;;;4.53;4.10;;;20.00;27.90;;;;;;5033358;28;20641;-71